createdAt,value
2023-06-07T00:00:46.808Z,17.51
2023-06-07T00:03:50.275Z,17.51
2023-06-07T00:07:01.893Z,17.54
2023-06-07T00:10:05.263Z,17.57
2023-06-07T00:13:08.142Z,17.51
2023-06-07T00:16:11.675Z,17.50
2023-06-07T00:19:14.729Z,17.47
2023-06-07T00:22:17.608Z,17.45
2023-06-07T00:25:20.479Z,17.46
2023-06-07T00:28:22.958Z,17.47
2023-06-07T00:31:25.469Z,17.45
2023-06-07T00:34:28.308Z,17.51
2023-06-07T00:37:30.877Z,17.54
2023-06-07T00:40:33.490Z,17.49
2023-06-07T00:43:35.989Z,17.39
2023-06-07T00:46:40.871Z,17.34
2023-06-07T00:49:45.003Z,17.28
2023-06-07T00:52:47.598Z,17.25
2023-06-07T00:55:50.178Z,17.29
2023-06-07T00:58:52.923Z,17.31
2023-06-07T01:01:57.060Z,17.44
2023-06-07T01:05:03.958Z,17.46
2023-06-07T01:08:06.717Z,17.43
2023-06-07T01:11:11.866Z,17.37
2023-06-07T01:14:17.258Z,17.34
2023-06-07T01:17:25.718Z,17.37
2023-06-07T01:20:31.302Z,17.40
2023-06-07T01:23:36.196Z,17.41
2023-06-07T01:26:39.141Z,17.35
2023-06-07T01:29:42.426Z,17.36
2023-06-07T01:32:46.719Z,17.36
2023-06-07T01:35:51.717Z,17.40
2023-06-07T01:38:57.236Z,17.38
2023-06-07T01:42:01.482Z,17.42
2023-06-07T01:45:05.939Z,17.47
2023-06-07T01:48:10.127Z,17.45
2023-06-07T01:51:12.784Z,17.44
2023-06-07T01:54:16.771Z,17.43
2023-06-07T01:57:42.817Z,17.38
2023-06-07T02:01:20.181Z,17.38
2023-06-07T02:04:26.876Z,17.36
2023-06-07T02:07:34.105Z,17.38
2023-06-07T02:10:39.931Z,17.41
2023-06-07T02:13:44.539Z,17.44
2023-06-07T02:16:48.295Z,17.50
2023-06-07T02:19:51.090Z,17.52
2023-06-07T02:22:53.838Z,17.56
2023-06-07T02:25:56.343Z,17.62
2023-06-07T02:28:59.092Z,17.54
2023-06-07T02:32:02.188Z,17.52
2023-06-07T02:35:05.243Z,17.45
2023-06-07T02:38:09.877Z,17.40
2023-06-07T02:41:14.002Z,17.33
2023-06-07T02:44:16.615Z,17.39
2023-06-07T02:47:19.133Z,17.42
2023-06-07T02:50:24.810Z,17.39
2023-06-07T02:53:31.472Z,17.42
2023-06-07T02:56:34.126Z,17.40
2023-06-07T02:59:36.688Z,17.37
2023-06-07T03:02:40.029Z,17.45
2023-06-07T03:05:42.849Z,17.43
2023-06-07T03:08:49.568Z,17.38
2023-06-07T03:11:56.415Z,17.35
2023-06-07T03:15:02.559Z,17.37
2023-06-07T03:18:06.707Z,17.43
2023-06-07T03:21:13.059Z,17.44
2023-06-07T03:24:18.180Z,17.48
2023-06-07T03:27:25.268Z,17.51
2023-06-07T03:30:32.662Z,17.46
2023-06-07T03:33:35.427Z,17.42
2023-06-07T03:36:37.984Z,17.43
2023-06-07T03:39:40.949Z,17.45
2023-06-07T03:42:43.624Z,17.53
2023-06-07T03:45:46.430Z,17.58
2023-06-07T03:48:52.810Z,17.55
2023-06-07T03:51:56.117Z,17.61
2023-06-07T03:54:59.334Z,17.57
2023-06-07T03:58:03.278Z,17.53
2023-06-07T04:01:07.809Z,17.58
2023-06-07T04:04:10.978Z,17.63
2023-06-07T04:07:13.669Z,17.70
2023-06-07T04:10:16.385Z,17.69
2023-06-07T04:13:18.874Z,17.61
2023-06-07T04:16:21.680Z,17.61
2023-06-07T04:19:25.729Z,17.65
2023-06-07T04:22:31.686Z,17.73
2023-06-07T04:25:35.214Z,17.74
2023-06-07T04:28:42.710Z,17.68
2023-06-07T04:31:45.953Z,17.77
2023-06-07T04:34:49.840Z,17.79
2023-06-07T04:37:53.352Z,17.79
2023-06-07T04:40:56.743Z,17.86
2023-06-07T04:44:12.935Z,17.85
2023-06-07T04:47:18.901Z,17.86
2023-06-07T04:50:22.179Z,17.88
2023-06-07T04:53:25.410Z,17.84
2023-06-07T04:56:28.824Z,17.92
2023-06-07T04:59:36.238Z,17.94
2023-06-07T05:02:45.610Z,17.97
2023-06-07T05:05:50.784Z,17.83
2023-06-07T05:08:53.997Z,17.99
2023-06-07T05:11:56.632Z,18.07
2023-06-07T05:15:02.246Z,18.15
2023-06-07T05:18:05.678Z,18.20
2023-06-07T05:21:08.596Z,18.28
2023-06-07T05:24:11.340Z,18.24
2023-06-07T05:27:15.375Z,18.38
2023-06-07T05:30:18.281Z,18.54
2023-06-07T05:33:22.210Z,18.79
2023-06-07T05:36:25.131Z,19.02
2023-06-07T05:39:28.162Z,19.22
2023-06-07T05:42:31.879Z,19.32
2023-06-07T05:45:34.975Z,19.55
2023-06-07T05:48:37.774Z,19.73
2023-06-07T05:51:44.084Z,19.80
2023-06-07T05:54:51.380Z,20.17
2023-06-07T05:57:55.514Z,20.27
2023-06-07T06:01:03.261Z,20.20
2023-06-07T06:04:06.044Z,20.36
2023-06-07T06:07:10.513Z,20.42
2023-06-07T06:10:13.656Z,20.62
2023-06-07T06:13:16.298Z,20.61
2023-06-07T06:16:18.989Z,20.71
2023-06-07T06:19:21.534Z,20.71
2023-06-07T06:22:24.185Z,20.83
2023-06-07T06:25:27.057Z,20.84
2023-06-07T06:28:29.792Z,20.63
2023-06-07T06:31:33.433Z,20.70
2023-06-07T06:34:36.295Z,20.55
2023-06-07T06:37:39.160Z,20.57
2023-06-07T06:40:42.248Z,20.35
2023-06-07T06:43:45.247Z,20.37
2023-06-07T06:46:52.302Z,20.38
2023-06-07T06:49:55.430Z,20.25
2023-06-07T06:52:58.286Z,20.36
2023-06-07T06:56:01.589Z,20.41
2023-06-07T06:59:04.280Z,20.31
2023-06-07T07:02:07.182Z,20.50
2023-06-07T07:05:10.759Z,20.80
2023-06-07T07:08:13.420Z,21.00
2023-06-07T07:11:16.044Z,21.19
2023-06-07T07:14:18.879Z,21.12
2023-06-07T07:17:21.579Z,21.26
2023-06-07T07:20:24.385Z,21.19
2023-06-07T07:23:26.984Z,21.49
2023-06-07T07:26:29.674Z,21.58
2023-06-07T07:29:33.181Z,21.74
2023-06-07T07:32:35.948Z,21.62
2023-06-07T07:35:39.152Z,21.90
2023-06-07T07:38:41.992Z,22.17
2023-06-07T07:41:44.725Z,22.34
2023-06-07T07:44:47.338Z,22.11
2023-06-07T07:47:50.455Z,22.45
2023-06-07T07:50:53.003Z,22.34
2023-06-07T07:53:58.084Z,22.48
2023-06-07T07:57:01.742Z,22.40
2023-06-07T08:00:06.905Z,22.23
2023-06-07T08:03:15.558Z,22.27
2023-06-07T08:06:22.757Z,21.96
2023-06-07T08:09:25.525Z,21.54
2023-06-07T08:12:29.629Z,21.60
2023-06-07T08:15:33.289Z,21.57
2023-06-07T08:18:36.299Z,21.71
2023-06-07T08:21:39.045Z,21.42
2023-06-07T08:24:42.340Z,21.52
2023-06-07T08:27:49.348Z,21.62
2023-06-07T08:30:51.942Z,21.85
2023-06-07T08:33:54.551Z,21.98
2023-06-07T08:36:58.311Z,21.80
2023-06-07T08:40:01.036Z,21.66
2023-06-07T08:43:04.584Z,21.50
2023-06-07T08:46:08.022Z,21.41
2023-06-07T08:49:12.269Z,21.53
2023-06-07T08:52:17.394Z,21.52
2023-06-07T08:55:20.712Z,21.29
2023-06-07T08:58:25.941Z,21.45
2023-06-07T09:01:32.218Z,21.30
2023-06-07T09:04:36.315Z,21.53
2023-06-07T09:07:39.937Z,21.42
2023-06-07T09:10:43.156Z,21.52
2023-06-07T09:13:45.915Z,21.74
2023-06-07T09:16:56.440Z,21.76
2023-06-07T09:19:59.103Z,21.78
2023-06-07T09:23:09.953Z,21.68
2023-06-07T09:26:12.989Z,21.58
2023-06-07T09:29:16.366Z,21.63
2023-06-07T09:32:25.427Z,21.70
2023-06-07T09:35:29.283Z,21.57
2023-06-07T09:38:32.198Z,21.59
2023-06-07T09:41:34.854Z,21.81
2023-06-07T09:44:37.653Z,21.74
2023-06-07T09:47:43.234Z,21.60
2023-06-07T09:50:58.553Z,21.11
2023-06-07T09:54:02.754Z,21.05
2023-06-07T09:57:10.654Z,20.88
2023-06-07T10:00:19.289Z,20.89
2023-06-07T10:03:21.958Z,21.00
2023-06-07T10:06:25.391Z,20.95
2023-06-07T10:09:32.033Z,21.20
2023-06-07T10:12:40.168Z,21.47
2023-06-07T10:15:47.986Z,21.81
2023-06-07T10:18:58.975Z,22.11
2023-06-07T10:22:02.969Z,22.18
2023-06-07T10:25:15.696Z,22.16
2023-06-07T10:28:34.051Z,21.97
2023-06-07T10:31:52.236Z,21.87
2023-06-07T10:34:56.532Z,21.88
2023-06-07T10:38:00.404Z,22.03
2023-06-07T10:41:06.073Z,22.26
2023-06-07T10:44:09.080Z,22.53
2023-06-07T10:47:28.869Z,22.63
2023-06-07T10:50:32.505Z,22.64
2023-06-07T10:53:57.324Z,22.91
2023-06-07T10:57:04.304Z,22.79
2023-06-07T11:00:30.305Z,22.73
2023-06-07T11:03:39.131Z,22.91
2023-06-07T11:07:20.546Z,22.73
2023-06-07T11:10:23.340Z,23.02
2023-06-07T11:13:44.627Z,22.94
2023-06-07T11:16:47.529Z,22.98
2023-06-07T11:19:59.200Z,23.19
2023-06-07T11:23:28.116Z,23.22
2023-06-07T11:26:36.355Z,23.61
2023-06-07T11:29:40.884Z,23.41
2023-06-07T11:32:46.485Z,23.75
2023-06-07T11:35:57.187Z,24.04
2023-06-07T11:39:07.094Z,24.41
2023-06-07T11:42:09.766Z,24.82
2023-06-07T11:45:14.164Z,24.70
2023-06-07T11:48:16.962Z,24.94
2023-06-07T11:51:19.577Z,23.99
2023-06-07T11:54:25.667Z,24.29
2023-06-07T11:57:33.350Z,24.26
2023-06-07T12:00:38.165Z,23.84
2023-06-07T12:03:44.003Z,24.45
2023-06-07T12:06:49.928Z,25.20
2023-06-07T12:09:52.787Z,25.64
2023-06-07T12:13:12.969Z,25.85
2023-06-07T12:16:15.898Z,25.36
2023-06-07T12:19:18.734Z,25.30
2023-06-07T12:22:21.318Z,25.16
2023-06-07T12:25:25.178Z,25.74
2023-06-07T12:28:27.803Z,26.44
2023-06-07T12:31:30.569Z,26.65
2023-06-07T12:34:33.344Z,26.40
2023-06-07T12:37:36.641Z,27.38
2023-06-07T12:40:39.644Z,26.97
2023-06-07T12:43:48.988Z,27.53
2023-06-07T12:46:51.906Z,27.43
2023-06-07T12:49:54.597Z,26.46
2023-06-07T12:52:58.270Z,26.38
2023-06-07T12:56:01.011Z,27.16
2023-06-07T12:59:04.336Z,27.92
2023-06-07T13:02:07.963Z,28.22
2023-06-07T13:05:14.380Z,28.52
2023-06-07T13:08:17.335Z,29.40
2023-06-07T13:11:19.867Z,30.63
2023-06-07T13:14:22.433Z,30.05
2023-06-07T13:17:25.576Z,29.54
2023-06-07T13:20:28.242Z,30.15
2023-06-07T13:23:30.859Z,29.70
2023-06-07T13:26:34.377Z,29.68
2023-06-07T13:29:36.948Z,31.42
2023-06-07T13:32:39.675Z,31.34
2023-06-07T13:35:42.307Z,30.87
2023-06-07T13:38:45.240Z,30.16
2023-06-07T13:41:48.397Z,29.87
2023-06-07T13:44:51.932Z,29.27
2023-06-07T13:47:55.025Z,29.27
2023-06-07T13:50:58.376Z,28.28
2023-06-07T13:54:01.673Z,28.15
2023-06-07T13:57:05.040Z,27.74
2023-06-07T14:00:13.409Z,27.74
2023-06-07T14:03:16.286Z,27.59
2023-06-07T14:06:22.932Z,28.61
2023-06-07T14:09:27.320Z,30.48
2023-06-07T14:12:29.892Z,31.39
2023-06-07T14:15:32.420Z,31.82
2023-06-07T14:18:34.964Z,31.31
2023-06-07T14:21:37.525Z,31.87
2023-06-07T14:24:40.536Z,31.23
2023-06-07T14:27:43.490Z,31.66
2023-06-07T14:30:46.364Z,31.17
2023-06-07T14:33:52.831Z,29.65
2023-06-07T14:36:55.947Z,28.24
2023-06-07T14:39:58.493Z,26.06
2023-06-07T14:43:01.200Z,25.88
2023-06-07T14:46:03.864Z,25.47
2023-06-07T14:49:06.491Z,25.54
2023-06-07T14:52:09.101Z,25.17
2023-06-07T14:55:11.868Z,24.88
2023-06-07T14:58:14.571Z,24.78
2023-06-07T15:01:18.504Z,24.01
2023-06-07T15:04:21.374Z,24.19
2023-06-07T15:07:24.896Z,23.66
2023-06-07T15:10:27.466Z,23.83
2023-06-07T15:13:29.975Z,23.88
2023-06-07T15:16:32.715Z,23.88
2023-06-07T15:19:35.536Z,23.26
2023-06-07T15:22:41.292Z,23.49
2023-06-07T15:25:43.847Z,23.48
2023-06-07T15:28:46.576Z,23.51
2023-06-07T15:31:49.418Z,23.62
2023-06-07T15:34:52.659Z,23.58
2023-06-07T15:37:56.860Z,23.21
2023-06-07T15:41:00.166Z,23.53
2023-06-07T15:44:03.009Z,23.70
2023-06-07T15:47:06.089Z,23.78
2023-06-07T15:50:09.303Z,23.66
2023-06-07T15:53:11.989Z,23.58
2023-06-07T15:56:14.887Z,23.27
2023-06-07T15:59:17.589Z,23.33
2023-06-07T16:02:20.268Z,23.46
2023-06-07T16:05:23.145Z,23.56
2023-06-07T16:08:25.867Z,23.71
2023-06-07T16:11:28.476Z,23.69
2023-06-07T16:14:31.102Z,24.30
2023-06-07T16:17:33.664Z,24.34
2023-06-07T16:20:36.484Z,25.34
2023-06-07T16:23:39.083Z,27.04
2023-06-07T16:26:41.642Z,26.80
2023-06-07T16:29:44.205Z,26.37
2023-06-07T16:32:46.843Z,26.42
2023-06-07T16:35:49.460Z,27.38
2023-06-07T16:38:52.081Z,28.09
2023-06-07T16:41:54.748Z,26.68
2023-06-07T16:44:57.982Z,26.79
2023-06-07T16:48:00.942Z,25.71
2023-06-07T16:51:03.976Z,26.04
2023-06-07T16:54:06.564Z,26.81
2023-06-07T16:57:09.094Z,27.41
2023-06-07T17:00:12.181Z,27.03
2023-06-07T17:03:14.836Z,27.99
2023-06-07T17:06:17.500Z,28.46
2023-06-07T17:09:20.100Z,28.03
2023-06-07T17:12:22.694Z,26.96
2023-06-07T17:15:26.461Z,25.41
2023-06-07T17:18:29.355Z,24.55
2023-06-07T17:21:31.999Z,24.03
2023-06-07T17:24:34.604Z,23.56
2023-06-07T17:27:37.255Z,23.19
2023-06-07T17:30:40.958Z,22.91
2023-06-07T17:33:43.532Z,22.86
2023-06-07T17:36:46.256Z,22.75
2023-06-07T17:39:50.003Z,22.67
2023-06-07T17:42:52.656Z,22.55
2023-06-07T17:45:55.307Z,22.33
2023-06-07T17:48:57.857Z,22.12
2023-06-07T17:52:06.317Z,22.06
2023-06-07T17:55:21.113Z,21.88
2023-06-07T17:58:23.711Z,21.73
2023-06-07T18:01:26.323Z,21.66
2023-06-07T18:04:29.493Z,21.54
2023-06-07T18:07:32.090Z,21.42
2023-06-07T18:10:34.689Z,21.30
2023-06-07T18:13:37.452Z,21.10
2023-06-07T18:16:40.119Z,21.15
2023-06-07T18:19:43.252Z,21.02
2023-06-07T18:22:45.819Z,21.06
2023-06-07T18:25:48.479Z,21.04
2023-06-07T18:28:51.223Z,21.03
2023-06-07T18:31:54.091Z,21.07
2023-06-07T18:34:56.752Z,21.06
2023-06-07T18:37:59.428Z,21.02
2023-06-07T18:41:01.988Z,21.00
2023-06-07T18:44:05.846Z,20.98
2023-06-07T18:47:08.616Z,20.94
2023-06-07T18:50:12.060Z,20.87
2023-06-07T18:53:14.760Z,20.87
2023-06-07T18:56:17.587Z,20.88
2023-06-07T18:59:20.302Z,20.75
2023-06-07T19:02:24.872Z,20.81
2023-06-07T19:05:27.657Z,20.69
2023-06-07T19:08:30.382Z,20.55
2023-06-07T19:11:35.230Z,20.47
2023-06-07T19:14:37.804Z,20.41
2023-06-07T19:17:40.361Z,20.21
2023-06-07T19:20:42.970Z,20.05
2023-06-07T19:23:45.806Z,19.91
2023-06-07T19:26:48.428Z,19.81
2023-06-07T19:29:51.000Z,19.78
2023-06-07T19:32:53.819Z,19.85
2023-06-07T19:35:56.785Z,19.85
2023-06-07T19:38:59.442Z,19.75
2023-06-07T19:42:04.669Z,19.59
2023-06-07T19:45:09.209Z,19.50
2023-06-07T19:48:11.875Z,19.34
2023-06-07T19:51:14.575Z,19.26
2023-06-07T19:54:17.229Z,19.08
2023-06-07T19:57:20.717Z,19.00
2023-06-07T20:00:23.468Z,18.96
2023-06-07T20:03:26.097Z,18.91
2023-06-07T20:06:28.914Z,18.82
2023-06-07T20:09:32.716Z,18.86
2023-06-07T20:12:35.439Z,18.93
2023-06-07T20:15:37.992Z,19.02
2023-06-07T20:18:40.641Z,19.08
2023-06-07T20:21:43.623Z,18.99
2023-06-07T20:24:46.346Z,19.01
2023-06-07T20:27:49.114Z,18.94
2023-06-07T20:30:51.734Z,18.98
2023-06-07T20:33:54.298Z,19.04
2023-06-07T20:36:57.238Z,19.01
2023-06-07T20:40:01.431Z,19.01
2023-06-07T20:43:04.124Z,18.79
2023-06-07T20:46:06.941Z,18.81
2023-06-07T20:49:09.680Z,18.77
2023-06-07T20:52:12.251Z,18.84
2023-06-07T20:55:16.203Z,18.81
2023-06-07T20:58:19.849Z,18.79
2023-06-07T21:01:24.521Z,18.76
2023-06-07T21:04:27.512Z,18.75
2023-06-07T21:07:30.107Z,18.69
2023-06-07T21:10:33.930Z,18.58
2023-06-07T21:13:38.900Z,18.64
2023-06-07T21:16:42.373Z,18.63
2023-06-07T21:19:47.960Z,18.62
2023-06-07T21:22:50.600Z,18.70
2023-06-07T21:25:53.891Z,18.66
2023-06-07T21:28:56.532Z,18.64
2023-06-07T21:31:59.459Z,18.64
2023-06-07T21:35:02.113Z,18.53
2023-06-07T21:38:04.694Z,18.54
2023-06-07T21:41:07.220Z,18.57
2023-06-07T21:44:09.794Z,18.51
2023-06-07T21:47:12.300Z,18.37
2023-06-07T21:50:15.885Z,18.46
2023-06-07T21:53:20.009Z,18.33
2023-06-07T21:56:22.523Z,18.28
2023-06-07T21:59:25.110Z,18.18
2023-06-07T22:02:29.695Z,17.96
2023-06-07T22:05:32.274Z,17.93
2023-06-07T22:08:34.721Z,17.92
2023-06-07T22:11:41.087Z,17.96
2023-06-07T22:14:44.409Z,17.94
2023-06-07T22:17:47.247Z,17.84
2023-06-07T22:20:50.713Z,17.75
2023-06-07T22:23:53.446Z,17.70
2023-06-07T22:26:55.962Z,17.56
2023-06-07T22:29:58.799Z,17.54
2023-06-07T22:33:01.840Z,17.57
2023-06-07T22:36:06.302Z,17.54
2023-06-07T22:39:11.506Z,17.57
2023-06-07T22:42:14.185Z,17.54
2023-06-07T22:45:17.584Z,17.50
2023-06-07T22:48:21.684Z,17.45
2023-06-07T22:51:25.054Z,17.41
2023-06-07T22:54:30.698Z,17.32
2023-06-07T22:57:33.261Z,17.27
2023-06-07T23:00:36.573Z,17.26
2023-06-07T23:03:40.276Z,17.27
2023-06-07T23:06:45.537Z,17.30
2023-06-07T23:09:47.987Z,17.26
2023-06-07T23:12:51.386Z,17.19
2023-06-07T23:15:54.896Z,17.21
2023-06-07T23:19:03.274Z,17.18
2023-06-07T23:22:05.809Z,17.18
2023-06-07T23:25:12.117Z,17.11
2023-06-07T23:28:14.690Z,17.19
2023-06-07T23:31:17.160Z,17.27
2023-06-07T23:34:21.223Z,17.19
2023-06-07T23:37:25.950Z,17.18
2023-06-07T23:40:28.430Z,17.22
2023-06-07T23:43:31.449Z,17.29
2023-06-07T23:46:34.014Z,17.31
2023-06-07T23:49:36.603Z,17.28
2023-06-07T23:52:40.970Z,17.41
2023-06-07T23:55:43.443Z,17.46
2023-06-07T23:58:46.245Z,17.47
